createdAt,value
2017-07-25T00:01:15.276Z,23.56
2017-07-25T00:02:14.804Z,23.56
2017-07-25T00:03:15.082Z,23.56
2017-07-25T00:04:14.965Z,23.46
2017-07-25T00:05:14.901Z,23.55
2017-07-25T00:06:14.839Z,23.51
2017-07-25T00:07:14.776Z,23.55
2017-07-25T00:08:14.795Z,23.56
2017-07-25T00:09:14.655Z,23.55
2017-07-25T00:10:14.598Z,23.54
2017-07-25T00:11:14.576Z,23.55
2017-07-25T00:12:14.469Z,23.56
2017-07-25T00:13:14.415Z,23.47
2017-07-25T00:14:14.550Z,23.55
2017-07-25T00:15:14.289Z,23.55
2017-07-25T00:16:14.623Z,23.47
2017-07-25T00:17:14.259Z,23.59
2017-07-25T00:18:14.104Z,23.55
2017-07-25T00:19:14.048Z,23.44
2017-07-25T00:20:13.976Z,23.54
2017-07-25T00:21:13.613Z,23.54
2017-07-25T00:22:13.853Z,23.5
2017-07-25T00:23:13.794Z,23.44
2017-07-25T00:24:13.744Z,23.56
2017-07-25T00:25:13.670Z,23.55
2017-07-25T00:26:13.607Z,23.5
2017-07-25T00:27:13.542Z,23.47
2017-07-25T00:28:13.485Z,23.55
2017-07-25T00:29:13.431Z,23.58
2017-07-25T00:30:13.443Z,23.56
2017-07-25T00:31:13.301Z,23.54
2017-07-25T00:32:13.239Z,23.51
2017-07-25T00:33:13.174Z,23.51
2017-07-25T00:34:13.116Z,23.54
2017-07-25T00:35:13.204Z,23.51
2017-07-25T00:36:12.989Z,23.5
2017-07-25T00:37:12.927Z,23.51
2017-07-25T00:38:12.869Z,23.47
2017-07-25T00:39:12.806Z,23.56
2017-07-25T00:40:13.145Z,23.51
2017-07-25T00:41:12.683Z,23.56
2017-07-25T00:42:12.626Z,23.5
2017-07-25T00:43:12.558Z,23.41
2017-07-25T00:44:12.194Z,23.48
2017-07-25T00:45:12.440Z,23.54
2017-07-25T00:46:12.371Z,23.41
2017-07-25T00:47:12.313Z,23.5
2017-07-25T00:48:12.246Z,23.58
2017-07-25T00:49:12.185Z,23.51
2017-07-25T00:50:12.145Z,23.4
2017-07-25T00:51:12.062Z,23.51
2017-07-25T00:52:12.001Z,23.54
2017-07-25T00:53:11.947Z,23.51
2017-07-25T00:54:11.577Z,23.54
2017-07-25T00:55:11.815Z,23.51
2017-07-25T00:56:11.764Z,23.41
2017-07-25T00:57:11.400Z,23.41
2017-07-25T00:58:11.025Z,23.55
2017-07-25T00:59:11.568Z,23.48
2017-07-25T01:00:11.585Z,23.44
2017-07-25T01:01:11.451Z,23.51
2017-07-25T01:02:11.476Z,23.44
2017-07-25T01:03:11.219Z,23.41
2017-07-25T01:04:10.957Z,23.5
2017-07-25T01:05:10.903Z,23.44
2017-07-25T01:06:11.136Z,23.48
2017-07-25T01:07:11.077Z,23.4
2017-07-25T01:08:11.012Z,23.56
2017-07-25T01:09:10.955Z,23.44
2017-07-25T01:10:10.289Z,23.41
2017-07-25T01:11:10.841Z,23.47
2017-07-25T01:12:10.466Z,23.41
2017-07-25T01:13:10.710Z,23.48
2017-07-25T01:14:10.641Z,23.5
2017-07-25T01:15:10.583Z,23.41
2017-07-25T01:16:10.523Z,23.48
2017-07-25T01:17:10.457Z,23.44
2017-07-25T01:18:10.492Z,23.54
2017-07-25T01:19:10.040Z,23.48
2017-07-25T01:20:10.273Z,23.48
2017-07-25T01:21:10.212Z,23.44
2017-07-25T01:22:10.153Z,23.43
2017-07-25T01:23:10.090Z,23.46
2017-07-25T01:24:10.023Z,23.46
2017-07-25T01:25:09.961Z,23.43
2017-07-25T01:26:09.902Z,23.51
2017-07-25T01:27:09.845Z,23.44
2017-07-25T01:28:09.472Z,23.43
2017-07-25T01:29:09.719Z,23.58
2017-07-25T01:30:09.660Z,23.48
2017-07-25T01:31:09.595Z,23.46
2017-07-25T01:32:09.531Z,23.44
2017-07-25T01:33:09.471Z,23.46
2017-07-25T01:34:09.123Z,23.46
2017-07-25T01:35:09.045Z,23.44
2017-07-25T01:36:09.307Z,23.46
2017-07-25T01:37:08.621Z,23.46
2017-07-25T01:38:08.863Z,23.48
2017-07-25T01:39:09.102Z,23.48
2017-07-25T01:40:09.289Z,23.5
2017-07-25T01:41:08.985Z,23.46
2017-07-25T01:42:08.922Z,23.46
2017-07-25T01:43:08.851Z,23.46
2017-07-25T01:44:08.795Z,23.47
2017-07-25T01:45:08.428Z,23.44
2017-07-25T01:46:08.667Z,23.46
2017-07-25T01:47:08.607Z,23.44
2017-07-25T01:48:08.241Z,23.46
2017-07-25T01:49:08.485Z,23.46
2017-07-25T01:50:08.428Z,23.48
2017-07-25T01:51:08.364Z,23.46
2017-07-25T01:52:07.995Z,23.41
2017-07-25T01:53:07.932Z,23.41
2017-07-25T01:54:08.217Z,23.41
2017-07-25T01:55:07.868Z,23.43
2017-07-25T01:56:08.066Z,23.48
2017-07-25T01:57:07.689Z,23.47
2017-07-25T01:58:07.925Z,23.43
2017-07-25T01:59:07.865Z,23.43
2017-07-25T02:00:07.502Z,23.44
2017-07-25T02:01:07.741Z,23.48
2017-07-25T02:02:07.679Z,23.5
2017-07-25T02:03:07.317Z,23.48
2017-07-25T02:04:07.559Z,23.48
2017-07-25T02:05:07.498Z,23.44
2017-07-25T02:06:07.440Z,23.46
2017-07-25T02:07:07.089Z,23.46
2017-07-25T02:08:07.309Z,23.5
2017-07-25T02:09:07.248Z,23.48
2017-07-25T02:10:07.187Z,23.43
2017-07-25T02:11:06.821Z,23.46
2017-07-25T02:12:06.804Z,23.46
2017-07-25T02:13:07.027Z,23.46
2017-07-25T02:14:06.940Z,23.39
2017-07-25T02:15:06.880Z,23.44
2017-07-25T02:16:06.849Z,23.43
2017-07-25T02:17:06.453Z,23.44
2017-07-25T02:18:06.697Z,23.41
2017-07-25T02:19:06.637Z,23.43
2017-07-25T02:20:06.571Z,23.44
2017-07-25T02:21:06.511Z,23.47
2017-07-25T02:22:06.145Z,23.46
2017-07-25T02:23:06.380Z,23.44
2017-07-25T02:24:06.331Z,23.46
2017-07-25T02:25:06.261Z,23.44
2017-07-25T02:26:06.197Z,23.5
2017-07-25T02:27:06.138Z,23.46
2017-07-25T02:28:05.802Z,23.44
2017-07-25T02:29:06.014Z,23.46
2017-07-25T02:30:05.655Z,23.48
2017-07-25T02:31:05.891Z,23.46
2017-07-25T02:32:05.824Z,23.47
2017-07-25T02:33:05.773Z,23.43
2017-07-25T02:34:05.709Z,23.39
2017-07-25T02:35:05.657Z,23.44
2017-07-25T02:36:05.280Z,23.5
2017-07-25T02:37:05.220Z,23.41
2017-07-25T02:38:05.464Z,23.46
2017-07-25T02:39:05.393Z,23.48
2017-07-25T02:40:04.737Z,23.46
2017-07-25T02:41:04.667Z,23.44
2017-07-25T02:42:04.905Z,23.46
2017-07-25T02:43:05.154Z,23.4
2017-07-25T02:44:05.091Z,23.34
2017-07-25T02:45:05.027Z,23.43
2017-07-25T02:46:04.964Z,23.46
2017-07-25T02:47:04.604Z,23.44
2017-07-25T02:48:04.849Z,23.44
2017-07-25T02:49:04.785Z,23.41
2017-07-25T02:50:04.721Z,23.46
2017-07-25T02:51:04.654Z,23.47
2017-07-25T02:52:04.600Z,23.48
2017-07-25T02:53:04.535Z,23.43
2017-07-25T02:54:04.468Z,23.39
2017-07-25T02:55:04.410Z,23.44
2017-07-25T02:56:04.345Z,23.46
2017-07-25T02:57:04.291Z,23.44
2017-07-25T02:58:03.990Z,23.44
2017-07-25T02:59:04.161Z,23.44
2017-07-25T03:00:04.401Z,23.41
2017-07-25T03:01:03.734Z,23.31
2017-07-25T03:02:03.974Z,23.46
2017-07-25T03:03:03.914Z,23.46
2017-07-25T03:04:03.852Z,23.43
2017-07-25T03:05:03.789Z,23.44
2017-07-25T03:06:03.732Z,23.44
2017-07-25T03:07:03.361Z,23.4
2017-07-25T03:08:03.611Z,23.47
2017-07-25T03:09:03.249Z,23.44
2017-07-25T03:10:03.180Z,23.34
2017-07-25T03:11:03.437Z,23.44
2017-07-25T03:12:03.360Z,23.27
2017-07-25T03:13:03.305Z,23.41
2017-07-25T03:14:02.628Z,23.41
2017-07-25T03:15:03.178Z,23.46
2017-07-25T03:16:03.114Z,23.39
2017-07-25T03:17:02.749Z,23.37
2017-07-25T03:18:02.682Z,23.36
2017-07-25T03:19:02.928Z,23.46
2017-07-25T03:20:02.904Z,23.34
2017-07-25T03:21:02.817Z,23.51
2017-07-25T03:22:02.811Z,23.4
2017-07-25T03:23:02.682Z,23.46
2017-07-25T03:24:02.640Z,23.41
2017-07-25T03:25:02.562Z,23.4
2017-07-25T03:26:02.506Z,23.31
2017-07-25T03:27:02.433Z,23.48
2017-07-25T03:28:02.435Z,23.41
2017-07-25T03:29:02.319Z,23.44
2017-07-25T03:30:02.255Z,23.41
2017-07-25T03:31:02.226Z,23.4
2017-07-25T03:32:01.822Z,23.37
2017-07-25T03:33:02.060Z,23.47
2017-07-25T03:34:02.001Z,23.34
2017-07-25T03:35:01.960Z,23.44
2017-07-25T03:36:01.878Z,23.32
2017-07-25T03:37:01.818Z,23.36
2017-07-25T03:38:01.753Z,23.37
2017-07-25T03:39:01.390Z,23.37
2017-07-25T03:40:01.682Z,23.46
2017-07-25T03:41:01.578Z,23.37
2017-07-25T03:42:01.506Z,23.36
2017-07-25T03:43:01.457Z,23.36
2017-07-25T03:44:01.383Z,23.37
2017-07-25T03:45:01.325Z,23.36
2017-07-25T03:46:01.258Z,23.36
2017-07-25T03:47:00.914Z,23.43
2017-07-25T03:48:00.846Z,23.37
2017-07-25T03:49:01.074Z,23.36
2017-07-25T03:50:01.020Z,23.34
2017-07-25T03:51:00.947Z,23.34
2017-07-25T03:52:00.584Z,23.31
2017-07-25T03:53:00.829Z,23.37
2017-07-25T03:54:00.464Z,23.34
2017-07-25T03:55:00.398Z,23.34
2017-07-25T03:56:00.640Z,23.31
2017-07-25T03:57:00.579Z,23.34
2017-07-25T03:58:00.518Z,23.34
2017-07-25T03:59:00.455Z,23.27
2017-07-25T04:00:00.096Z,23.36
2017-07-25T04:01:00.337Z,23.32
2017-07-25T04:01:59.966Z,23.44
2017-07-25T04:03:00.205Z,23.31
2017-07-25T04:04:00.149Z,23.36
2017-07-25T04:05:00.086Z,23.34
2017-07-25T04:06:00.023Z,23.4
2017-07-25T04:06:59.659Z,23.37
2017-07-25T04:07:59.897Z,23.28
2017-07-25T04:08:59.835Z,23.4
2017-07-25T04:09:59.797Z,23.36
2017-07-25T04:10:59.719Z,23.34
2017-07-25T04:11:59.652Z,23.39
2017-07-25T04:12:59.591Z,23.31
2017-07-25T04:13:59.535Z,23.31
2017-07-25T04:14:59.167Z,23.31
2017-07-25T04:15:59.103Z,23.41
2017-07-25T04:16:59.350Z,23.37
2017-07-25T04:17:59.280Z,23.36
2017-07-25T04:18:59.226Z,23.31
2017-07-25T04:19:59.154Z,23.36
2017-07-25T04:20:59.096Z,23.37
2017-07-25T04:21:59.036Z,23.27
2017-07-25T04:22:58.974Z,23.31
2017-07-25T04:23:58.917Z,23.4
2017-07-25T04:24:58.850Z,23.28
2017-07-25T04:25:58.486Z,23.32
2017-07-25T04:26:58.721Z,23.36
2017-07-25T04:27:58.361Z,23.24
2017-07-25T04:28:58.737Z,23.32
2017-07-25T04:29:58.235Z,23.32
2017-07-25T04:30:58.478Z,23.36
2017-07-25T04:31:58.413Z,23.36
2017-07-25T04:32:58.359Z,23.37
2017-07-25T04:33:58.292Z,23.31
2017-07-25T04:34:58.237Z,23.41
2017-07-25T04:35:57.868Z,23.34
2017-07-25T04:36:58.114Z,23.37
2017-07-25T04:37:58.043Z,23.34
2017-07-25T04:38:58.057Z,23.34
2017-07-25T04:39:57.922Z,23.37
2017-07-25T04:40:57.862Z,23.27
2017-07-25T04:41:57.798Z,23.36
2017-07-25T04:42:57.433Z,23.28
2017-07-25T04:43:57.680Z,23.27
2017-07-25T04:44:57.610Z,23.34
2017-07-25T04:45:57.583Z,23.32
2017-07-25T04:46:57.496Z,23.37
2017-07-25T04:47:57.431Z,23.27
2017-07-25T04:48:57.382Z,23.34
2017-07-25T04:49:57.308Z,23.36
2017-07-25T04:50:57.240Z,23.34
2017-07-25T04:51:56.883Z,23.31
2017-07-25T04:52:56.821Z,23.4
2017-07-25T04:53:57.055Z,23.24
2017-07-25T04:54:57.002Z,23.31
2017-07-25T04:55:56.939Z,23.34
2017-07-25T04:56:56.871Z,23.34
2017-07-25T04:57:56.809Z,23.36
2017-07-25T04:58:56.747Z,23.36
2017-07-25T04:59:56.685Z,23.36
2017-07-25T05:00:56.625Z,23.4
2017-07-25T05:01:56.259Z,23.32
2017-07-25T05:02:56.506Z,23.34
2017-07-25T05:03:56.443Z,23.37
2017-07-25T05:04:56.378Z,23.32
2017-07-25T05:05:56.314Z,23.41
2017-07-25T05:06:56.255Z,23.34
2017-07-25T05:07:55.893Z,23.27
2017-07-25T05:08:56.140Z,23.32
2017-07-25T05:09:56.075Z,23.32
2017-07-25T05:10:56.006Z,23.39
2017-07-25T05:11:55.948Z,23.37
2017-07-25T05:12:55.892Z,23.34
2017-07-25T05:13:55.525Z,23.37
2017-07-25T05:14:55.757Z,23.34
2017-07-25T05:15:55.701Z,23.4
2017-07-25T05:16:55.637Z,23.34
2017-07-25T05:17:55.573Z,23.4
2017-07-25T05:18:55.516Z,23.25
2017-07-25T05:19:55.450Z,23.27
2017-07-25T05:20:55.396Z,23.31
2017-07-25T05:21:55.027Z,23.36
2017-07-25T05:22:55.265Z,23.27
2017-07-25T05:23:55.209Z,23.28
2017-07-25T05:24:55.140Z,23.31
2017-07-25T05:25:55.094Z,23.34
2017-07-25T05:26:55.024Z,23.37
2017-07-25T05:27:54.656Z,23.25
2017-07-25T05:28:54.895Z,23.44
2017-07-25T05:29:54.841Z,23.41
2017-07-25T05:30:54.773Z,23.37
2017-07-25T05:31:54.709Z,23.31
2017-07-25T05:32:54.646Z,23.31
2017-07-25T05:33:54.589Z,23.32
2017-07-25T05:34:54.229Z,23.37
2017-07-25T05:35:54.216Z,23.34
2017-07-25T05:36:54.399Z,23.32
2017-07-25T05:37:54.344Z,23.32
2017-07-25T05:38:54.059Z,23.27
2017-07-25T05:39:54.212Z,23.31
2017-07-25T05:40:54.159Z,23.36
2017-07-25T05:41:54.104Z,23.27
2017-07-25T05:42:53.728Z,23.36
2017-07-25T05:43:53.999Z,23.36
2017-07-25T05:44:53.912Z,23.28
2017-07-25T05:45:54.098Z,23.31
2017-07-25T05:46:53.781Z,23.28
2017-07-25T05:47:53.415Z,23.31
2017-07-25T05:48:53.358Z,23.37
2017-07-25T05:49:53.601Z,23.28
2017-07-25T05:50:53.588Z,23.32
2017-07-25T05:51:52.867Z,23.36
2017-07-25T05:52:53.411Z,23.36
2017-07-25T05:53:53.351Z,23.32
2017-07-25T05:54:52.989Z,23.34
2017-07-25T05:55:52.923Z,23.32
2017-07-25T05:56:53.168Z,23.34
2017-07-25T05:57:53.101Z,23.25
2017-07-25T05:58:52.745Z,23.28
2017-07-25T05:59:52.983Z,23.27
2017-07-25T06:00:52.917Z,23.25
2017-07-25T06:01:52.851Z,23.32
2017-07-25T06:02:52.843Z,23.23
2017-07-25T06:03:52.435Z,23.36
2017-07-25T06:04:52.367Z,23.28
2017-07-25T06:05:52.612Z,23.32
2017-07-25T06:06:52.242Z,23.28
2017-07-25T06:07:52.183Z,23.27
2017-07-25T06:08:52.129Z,23.32
2017-07-25T06:09:52.362Z,23.27
2017-07-25T06:10:52.510Z,23.31
2017-07-25T06:11:52.241Z,23.4
2017-07-25T06:12:52.191Z,23.31
2017-07-25T06:13:52.206Z,23.32
2017-07-25T06:14:52.056Z,23.27
2017-07-25T06:15:51.691Z,23.37
2017-07-25T06:16:51.931Z,23.4
2017-07-25T06:17:51.646Z,23.34
2017-07-25T06:18:51.592Z,23.31
2017-07-25T06:19:51.167Z,23.28
2017-07-25T06:20:51.701Z,23.39
2017-07-25T06:21:51.317Z,23.43
2017-07-25T06:22:51.563Z,23.28
2017-07-25T06:23:51.558Z,23.28
2017-07-25T06:24:50.829Z,23.39
2017-07-25T06:25:50.767Z,23.4
2017-07-25T06:26:51.315Z,23.28
2017-07-25T06:27:50.948Z,23.31
2017-07-25T06:28:50.889Z,23.32
2017-07-25T06:29:50.849Z,23.31
2017-07-25T06:30:51.189Z,23.36
2017-07-25T06:31:50.768Z,23.27
2017-07-25T06:32:50.639Z,23.31
2017-07-25T06:33:50.883Z,23.37
2017-07-25T06:34:50.815Z,23.34
2017-07-25T06:35:50.758Z,23.39
2017-07-25T06:36:50.086Z,23.41
2017-07-25T06:37:50.630Z,23.25
2017-07-25T06:38:50.572Z,23.39
2017-07-25T06:39:50.226Z,23.23
2017-07-25T06:40:50.147Z,23.34
2017-07-25T06:41:50.087Z,23.28
2017-07-25T06:42:50.016Z,23.27
2017-07-25T06:43:50.307Z,23.34
2017-07-25T06:44:49.895Z,23.37
2017-07-25T06:45:49.842Z,23.28
2017-07-25T06:46:49.475Z,23.25
2017-07-25T06:47:50.102Z,23.4
2017-07-25T06:48:49.950Z,23.31
2017-07-25T06:49:49.593Z,23.39
2017-07-25T06:50:49.829Z,23.32
2017-07-25T06:51:49.465Z,23.28
2017-07-25T06:52:49.662Z,23.36
2017-07-25T06:53:49.727Z,23.36
2017-07-25T06:54:49.590Z,23.36
2017-07-25T06:55:49.520Z,23.28
2017-07-25T06:56:49.467Z,23.32
2017-07-25T06:57:49.394Z,23.32
2017-07-25T06:58:49.332Z,23.27
2017-07-25T06:59:49.283Z,23.24
2017-07-25T07:00:48.916Z,23.36
2017-07-25T07:01:49.211Z,23.23
2017-07-25T07:02:48.495Z,23.25
2017-07-25T07:03:49.096Z,23.32
2017-07-25T07:04:48.965Z,23.31
2017-07-25T07:05:48.600Z,23.24
2017-07-25T07:06:48.542Z,23.34
2017-07-25T07:07:48.780Z,23.23
2017-07-25T07:08:48.711Z,23.27
2017-07-25T07:09:48.356Z,23.36
2017-07-25T07:10:48.621Z,23.34
2017-07-25T07:11:48.599Z,23.31
2017-07-25T07:12:48.382Z,23.32
2017-07-25T07:13:48.484Z,23.31
2017-07-25T07:14:48.348Z,23.28
2017-07-25T07:15:48.290Z,23.37
2017-07-25T07:16:48.237Z,23.24
2017-07-25T07:17:48.164Z,23.32
2017-07-25T07:18:48.174Z,23.32
2017-07-25T07:19:47.754Z,23.31
2017-07-25T07:20:47.997Z,23.21
2017-07-25T07:21:47.945Z,23.21
2017-07-25T07:22:47.851Z,23.21
2017-07-25T07:23:47.789Z,23.25
2017-07-25T07:24:47.423Z,23.27
2017-07-25T07:25:47.689Z,23.31
2017-07-25T07:26:47.385Z,23.25
2017-07-25T07:27:47.592Z,23.25
2017-07-25T07:28:47.177Z,23.32
2017-07-25T07:29:47.118Z,23.21
2017-07-25T07:30:47.462Z,23.28
2017-07-25T07:31:47.297Z,23.25
2017-07-25T07:32:47.433Z,23.36
2017-07-25T07:33:47.169Z,23.31
2017-07-25T07:34:47.116Z,23.24
2017-07-25T07:35:46.748Z,23.25
2017-07-25T07:36:46.752Z,23.21
2017-07-25T07:37:46.919Z,23.27
2017-07-25T07:38:46.870Z,23.25
2017-07-25T07:39:46.822Z,23.24
2017-07-25T07:40:46.751Z,23.23
2017-07-25T07:41:46.893Z,23.27
2017-07-25T07:42:46.616Z,23.27
2017-07-25T07:43:46.552Z,23.25
2017-07-25T07:44:46.412Z,23.23
2017-07-25T07:45:46.486Z,23.21
2017-07-25T07:46:46.138Z,23.21
2017-07-25T07:47:46.403Z,23.21
2017-07-25T07:48:46.253Z,23.28
2017-07-25T07:49:46.388Z,23.31
2017-07-25T07:50:46.119Z,23.24
2017-07-25T07:51:46.059Z,23.31
2017-07-25T07:52:45.706Z,23.32
2017-07-25T07:53:45.946Z,23.23
2017-07-25T07:54:45.874Z,23.28
2017-07-25T07:55:45.817Z,23.2
2017-07-25T07:56:45.755Z,23.27
2017-07-25T07:57:45.689Z,23.2
2017-07-25T07:58:45.328Z,23.21
2017-07-25T07:59:45.565Z,23.25
2017-07-25T08:00:45.398Z,23.27
2017-07-25T08:01:45.607Z,23.27
2017-07-25T08:02:45.600Z,23.31
2017-07-25T08:03:45.455Z,23.31
2017-07-25T08:04:45.408Z,23.31
2017-07-25T08:05:44.889Z,23.25
2017-07-25T08:06:45.138Z,23.34
2017-07-25T08:07:45.075Z,23.36
2017-07-25T08:08:45.008Z,23.41
2017-07-25T08:09:45.048Z,23.46
2017-07-25T08:10:44.929Z,23.46
2017-07-25T08:11:45.028Z,23.41
2017-07-25T08:12:44.802Z,23.47
2017-07-25T08:13:44.700Z,23.55
2017-07-25T08:14:44.636Z,23.44
2017-07-25T08:15:44.579Z,23.41
2017-07-25T08:16:44.514Z,23.55
2017-07-25T08:17:44.649Z,23.56
2017-07-25T08:18:44.457Z,23.51
2017-07-25T08:19:44.381Z,23.54
2017-07-25T08:20:44.319Z,23.54
2017-07-25T08:21:44.251Z,23.58
2017-07-25T08:22:44.369Z,23.51
2017-07-25T08:23:43.779Z,23.58
2017-07-25T08:24:44.022Z,23.58
2017-07-25T08:25:43.958Z,23.51
2017-07-25T08:26:43.919Z,23.61
2017-07-25T08:27:44.046Z,23.61
2017-07-25T08:28:43.774Z,23.65
2017-07-25T08:29:43.709Z,23.71
2017-07-25T08:30:43.649Z,23.69
2017-07-25T08:31:43.296Z,23.66
2017-07-25T08:32:43.231Z,23.68
2017-07-25T08:33:43.465Z,23.71
2017-07-25T08:34:43.150Z,23.74
2017-07-25T08:35:43.353Z,23.74
2017-07-25T08:36:43.280Z,23.76
2017-07-25T08:37:43.233Z,23.76
2017-07-25T08:38:43.252Z,23.73
2017-07-25T08:39:43.229Z,23.78
2017-07-25T08:40:43.033Z,23.76
2017-07-25T08:41:42.975Z,23.77
2017-07-25T08:42:42.646Z,23.77
2017-07-25T08:43:42.911Z,23.8
2017-07-25T08:44:42.785Z,23.83
2017-07-25T08:45:42.803Z,23.8
2017-07-25T08:46:42.663Z,23.83
2017-07-25T08:47:42.602Z,23.76
2017-07-25T08:48:42.541Z,23.87
2017-07-25T08:49:42.601Z,23.81
2017-07-25T08:50:42.154Z,23.86
2017-07-25T08:51:42.403Z,23.84
2017-07-25T08:52:42.468Z,23.84
2017-07-25T08:53:42.240Z,23.91
2017-07-25T08:54:42.215Z,23.86
2017-07-25T08:55:42.137Z,23.88
2017-07-25T08:56:42.046Z,23.87
2017-07-25T08:57:41.692Z,23.98
2017-07-25T08:58:41.942Z,23.81
2017-07-25T08:59:41.982Z,23.84
2017-07-25T09:00:41.806Z,23.98
2017-07-25T09:01:41.740Z,23.88
2017-07-25T09:02:41.378Z,23.95
2017-07-25T09:03:41.319Z,23.98
2017-07-25T09:04:41.556Z,23.92
2017-07-25T09:05:41.302Z,23.92
2017-07-25T09:06:41.442Z,23.88
2017-07-25T09:07:41.410Z,23.88
2017-07-25T09:08:41.308Z,23.98
2017-07-25T09:09:41.323Z,23.83
2017-07-25T09:10:40.928Z,23.92
2017-07-25T09:11:41.225Z,23.92
2017-07-25T09:12:41.075Z,23.95
2017-07-25T09:13:41.048Z,23.87
2017-07-25T09:14:40.943Z,23.98
2017-07-25T09:15:40.895Z,23.93
2017-07-25T09:16:40.440Z,23.87
2017-07-25T09:17:40.819Z,23.91
2017-07-25T09:18:40.735Z,23.96
2017-07-25T09:19:40.661Z,23.91
2017-07-25T09:20:40.650Z,23.88
2017-07-25T09:21:40.524Z,23.88
2017-07-25T09:22:40.517Z,23.91
2017-07-25T09:23:40.392Z,23.95
2017-07-25T09:24:40.360Z,23.95
2017-07-25T09:25:40.323Z,23.95
2017-07-25T09:26:40.213Z,23.96
2017-07-25T09:27:40.350Z,23.99
2017-07-25T09:28:40.083Z,23.96
2017-07-25T09:29:40.028Z,24.03
2017-07-25T09:30:40.045Z,24.05
2017-07-25T09:31:39.914Z,23.95
2017-07-25T09:32:39.842Z,24.01
2017-07-25T09:33:39.789Z,23.95
2017-07-25T09:34:40.053Z,24.01
2017-07-25T09:35:39.920Z,23.99
2017-07-25T09:36:39.299Z,24.08
2017-07-25T09:37:39.583Z,24.03
2017-07-25T09:38:39.482Z,24.05
2017-07-25T09:39:39.480Z,24.03
2017-07-25T09:40:39.429Z,24.03
2017-07-25T09:41:39.350Z,24.03
2017-07-25T09:42:39.438Z,24.01
2017-07-25T09:43:38.881Z,24.03
2017-07-25T09:44:39.123Z,24.03
2017-07-25T09:45:39.049Z,23.95
2017-07-25T09:46:39.019Z,24.02
2017-07-25T09:47:38.996Z,24.05
2017-07-25T09:48:38.882Z,24.03
2017-07-25T09:49:38.581Z,24.03
2017-07-25T09:50:38.854Z,24.06
2017-07-25T09:51:38.686Z,24.03
2017-07-25T09:52:38.619Z,24.08
2017-07-25T09:53:38.568Z,24.05
2017-07-25T09:54:38.196Z,23.93
2017-07-25T09:55:38.522Z,24.01
2017-07-25T09:56:38.592Z,24.02
2017-07-25T09:57:38.312Z,23.91
2017-07-25T09:58:38.474Z,23.99
2017-07-25T09:59:38.245Z,24.03
2017-07-25T10:00:37.886Z,24.1
2017-07-25T10:01:37.766Z,23.92
2017-07-25T10:02:37.733Z,24.05
2017-07-25T10:03:37.640Z,24.02
2017-07-25T10:04:38.111Z,24.1
2017-07-25T10:05:37.527Z,24.05
2017-07-25T10:06:37.962Z,24.03
2017-07-25T10:07:37.749Z,24.03
2017-07-25T10:08:37.667Z,24.03
2017-07-25T10:09:36.975Z,24.08
2017-07-25T10:10:38.698Z,23.99
2017-07-25T10:11:37.717Z,23.95
2017-07-25T10:12:37.399Z,24.01
2017-07-25T10:13:37.050Z,23.98
2017-07-25T10:14:37.287Z,23.96
2017-07-25T10:15:37.214Z,24.02
2017-07-25T10:16:37.344Z,23.93
2017-07-25T10:17:37.166Z,23.91
2017-07-25T10:18:37.273Z,23.88
2017-07-25T10:19:36.983Z,23.87
2017-07-25T10:20:36.610Z,23.87
2017-07-25T10:21:36.541Z,23.88
2017-07-25T10:22:36.796Z,23.96
2017-07-25T10:23:36.774Z,23.86
2017-07-25T10:24:36.385Z,23.86
2017-07-25T10:25:36.626Z,23.88
2017-07-25T10:26:36.607Z,23.96
2017-07-25T10:27:36.174Z,23.87
2017-07-25T10:28:36.131Z,23.93
2017-07-25T10:29:36.255Z,23.95
2017-07-25T10:30:36.510Z,23.95
2017-07-25T10:31:36.236Z,23.92
2017-07-25T10:32:36.210Z,23.93
2017-07-25T10:33:36.750Z,23.88
2017-07-25T10:34:35.772Z,23.86
2017-07-25T10:35:36.021Z,23.88
2017-07-25T10:36:35.952Z,23.8
2017-07-25T10:37:35.896Z,23.83
2017-07-25T10:38:35.816Z,23.83
2017-07-25T10:39:35.742Z,23.88
2017-07-25T10:40:35.716Z,23.87
2017-07-25T10:41:35.628Z,23.87
2017-07-25T10:42:35.262Z,23.88
2017-07-25T10:43:35.196Z,23.83
2017-07-25T10:44:35.452Z,23.8
2017-07-25T10:45:35.424Z,23.88
2017-07-25T10:46:34.706Z,23.91
2017-07-25T10:47:35.288Z,23.81
2017-07-25T10:48:35.211Z,23.86
2017-07-25T10:49:35.140Z,23.83
2017-07-25T10:50:34.831Z,23.84
2017-07-25T10:51:35.007Z,23.8
2017-07-25T10:52:34.978Z,23.8
2017-07-25T10:53:34.908Z,23.77
2017-07-25T10:54:34.826Z,23.8
2017-07-25T10:55:34.801Z,23.81
2017-07-25T10:56:34.732Z,23.81
2017-07-25T10:57:34.634Z,23.78
2017-07-25T10:58:34.279Z,23.8
2017-07-25T10:59:34.530Z,23.77
2017-07-25T11:00:34.456Z,23.8
2017-07-25T11:01:34.409Z,23.77
2017-07-25T11:02:34.335Z,23.73
2017-07-25T11:03:33.977Z,23.8
2017-07-25T11:04:34.218Z,23.76
2017-07-25T11:05:34.149Z,23.77
2017-07-25T11:06:34.082Z,23.73
2017-07-25T11:07:34.026Z,23.74
2017-07-25T11:08:33.966Z,23.76
2017-07-25T11:09:34.511Z,23.73
2017-07-25T11:10:33.871Z,23.74
2017-07-25T11:11:33.479Z,23.69
2017-07-25T11:12:33.719Z,23.73
2017-07-25T11:13:33.658Z,23.71
2017-07-25T11:14:33.002Z,23.74
2017-07-25T11:15:33.228Z,23.74
2017-07-25T11:16:33.175Z,23.69
2017-07-25T11:17:33.329Z,23.77
2017-07-25T11:18:33.049Z,23.76
2017-07-25T11:19:32.982Z,23.73
2017-07-25T11:20:33.251Z,23.66
2017-07-25T11:21:33.164Z,23.65
2017-07-25T11:22:32.514Z,23.69
2017-07-25T11:23:33.101Z,23.76
2017-07-25T11:24:33.107Z,23.73
2017-07-25T11:25:32.926Z,23.68
2017-07-25T11:26:32.883Z,23.69
2017-07-25T11:27:32.807Z,23.66
2017-07-25T11:28:32.506Z,23.71
2017-07-25T11:29:33.060Z,23.65
2017-07-25T11:30:32.631Z,23.68
2017-07-25T11:31:32.794Z,23.69
2017-07-25T11:32:32.229Z,23.71
2017-07-25T11:33:32.442Z,23.62
2017-07-25T11:34:32.379Z,23.68
2017-07-25T11:35:32.320Z,23.69
2017-07-25T11:36:31.944Z,23.66
2017-07-25T11:37:32.215Z,23.69
2017-07-25T11:38:31.820Z,23.66
2017-07-25T11:39:32.086Z,23.65
2017-07-25T11:40:32.068Z,23.65
2017-07-25T11:41:31.948Z,23.66
2017-07-25T11:42:31.591Z,23.65
2017-07-25T11:43:31.520Z,23.65
2017-07-25T11:44:31.776Z,23.62
2017-07-25T11:45:31.701Z,23.66
2017-07-25T11:46:31.710Z,23.63
2017-07-25T11:47:31.666Z,23.66
2017-07-25T11:48:31.772Z,23.58
2017-07-25T11:49:30.997Z,23.61
2017-07-25T11:50:31.429Z,23.68
2017-07-25T11:51:31.362Z,23.65
2017-07-25T11:52:31.543Z,23.68
2017-07-25T11:53:30.957Z,23.59
2017-07-25T11:54:31.143Z,23.59
2017-07-25T11:55:31.193Z,23.59
2017-07-25T11:56:31.017Z,23.59
2017-07-25T11:57:31.179Z,23.59
2017-07-25T11:58:30.967Z,23.59
2017-07-25T11:59:30.524Z,23.59
2017-07-25T12:00:30.817Z,23.62
2017-07-25T12:01:30.710Z,23.68
2017-07-25T12:02:30.648Z,23.59
2017-07-25T12:03:30.583Z,23.61
2017-07-25T12:04:30.564Z,23.58
2017-07-25T12:05:30.478Z,23.61
2017-07-25T12:06:30.097Z,23.61
2017-07-25T12:07:30.237Z,23.56
2017-07-25T12:08:30.274Z,23.59
2017-07-25T12:09:30.224Z,23.61
2017-07-25T12:10:29.849Z,23.63
2017-07-25T12:11:30.091Z,23.59
2017-07-25T12:12:29.728Z,23.61
2017-07-25T12:13:30.179Z,23.55
2017-07-25T12:14:29.604Z,23.61
2017-07-25T12:15:29.692Z,23.59
2017-07-25T12:16:29.799Z,23.59
2017-07-25T12:17:30.237Z,23.59
2017-07-25T12:18:29.972Z,23.63
2017-07-25T12:19:29.817Z,23.59
2017-07-25T12:20:29.868Z,23.48
2017-07-25T12:21:29.719Z,23.59
2017-07-25T12:22:29.435Z,23.5
2017-07-25T12:23:29.359Z,23.66
2017-07-25T12:24:28.986Z,23.5
2017-07-25T12:25:29.229Z,23.54
2017-07-25T12:26:29.189Z,23.54
2017-07-25T12:27:29.121Z,23.58
2017-07-25T12:28:29.052Z,23.55
2017-07-25T12:29:29.114Z,23.46
2017-07-25T12:30:28.925Z,23.5
2017-07-25T12:31:28.861Z,23.5
2017-07-25T12:32:28.998Z,23.48
2017-07-25T12:33:28.742Z,23.63
2017-07-25T12:34:28.690Z,23.48
2017-07-25T12:35:28.668Z,23.54
2017-07-25T12:36:28.549Z,23.5
2017-07-25T12:37:28.212Z,23.56
2017-07-25T12:38:28.485Z,23.5
2017-07-25T12:39:27.964Z,23.56
2017-07-25T12:40:28.420Z,23.51
2017-07-25T12:41:28.246Z,23.5
2017-07-25T12:42:28.062Z,23.54
2017-07-25T12:43:27.914Z,23.54
2017-07-25T12:44:28.092Z,23.5
2017-07-25T12:45:27.696Z,23.54
2017-07-25T12:46:28.177Z,23.47
2017-07-25T12:47:27.626Z,23.48
2017-07-25T12:48:27.812Z,23.48
2017-07-25T12:49:27.784Z,23.5
2017-07-25T12:50:28.300Z,23.51
2017-07-25T12:51:27.704Z,23.58
2017-07-25T12:52:27.569Z,23.51
2017-07-25T12:53:27.570Z,23.51
2017-07-25T12:54:27.669Z,23.51